Time;durP1;ratioP1;P1;durP2;ratioP2;P2;SDS_P1;SDS_P2;PMS_P1;PMS_P2;Temp;Humidity;BMP_temperature;BMP_pressure;BME280_temperature;BME280_humidity;BME280_pressure;Samples;Min_cycle;Max_cycle;Signal;HPM_P1;HPM_P2
2024/01/23 00:00:17;;;;;;;46.78;10.45;;;10.00;99.90;;;10.21;84.19;101502.59;4952674;29;20071;-68
2024/01/23 00:02:46;;;;;;;43.95;9.23;;;10.00;99.90;;;10.06;83.71;101481.31;4952895;28;20047;-66
2024/01/23 00:05:14;;;;;;;41.85;9.43;;;9.90;99.90;;;10.12;83.44;101494.63;4956161;29;20489;-69
2024/01/23 00:07:43;;;;;;;43.42;9.57;;;10.00;99.90;;;10.07;83.31;101504.22;4956076;29;20067;-68
2024/01/23 00:10:13;;;;;;;37.55;9.30;;;9.90;99.90;;;10.01;82.56;101519.16;4956218;29;20048;-69
2024/01/23 00:12:41;;;;;;;44.25;8.38;;;9.90;99.90;;;9.86;82.15;101534.91;4956114;29;20513;-69
2024/01/23 00:15:11;;;;;;;38.95;8.90;;;9.70;99.90;;;9.90;81.22;101546.38;4956329;29;20093;-67
2024/01/23 00:17:39;;;;;;;44.08;8.88;;;9.80;99.90;;;9.89;80.42;101545.47;4956313;28;20051;-69
2024/01/23 00:20:09;;;;;;;38.50;8.63;;;9.70;99.90;;;9.80;79.66;101534.84;4956020;29;20047;-68
2024/01/23 00:22:37;;;;;;;37.53;8.55;;;9.70;99.90;;;9.72;78.26;101533.88;4955940;29;20098;-69
2024/01/23 00:25:06;;;;;;;32.40;9.27;;;9.50;99.90;;;9.74;77.77;101532.13;4956403;29;20063;-68
2024/01/23 00:27:36;;;;;;;36.97;8.27;;;9.60;99.90;;;9.76;77.00;101534.78;4955760;29;20043;-68
2024/01/23 00:30:07;;;;;;;28.87;7.73;;;9.60;99.90;;;9.77;76.64;101541.84;4955891;29;20047;-68
2024/01/23 00:32:36;;;;;;;30.60;8.70;;;9.60;99.90;;;9.77;76.27;101545.41;4955792;29;20097;-68
2024/01/23 00:35:05;;;;;;;33.55;7.93;;;9.60;99.90;;;9.83;76.73;101561.28;4955921;29;20501;-68
2024/01/23 00:37:33;;;;;;;29.15;7.82;;;9.70;99.90;;;9.63;77.43;101562.84;4955881;29;20062;-68
2024/01/23 00:40:03;;;;;;;36.47;8.52;;;9.60;99.90;;;9.65;78.15;101571.69;4955691;29;20903;-68
2024/01/23 00:42:31;;;;;;;48.77;8.73;;;9.50;99.90;;;9.63;78.22;101585.72;4955543;29;20110;-70
2024/01/23 00:45:03;;;;;;;40.15;8.38;;;9.50;99.90;;;9.74;78.72;101603.47;4955496;28;20299;-68
2024/01/23 00:47:32;;;;;;;36.50;8.60;;;9.60;99.90;;;9.81;78.74;101593.84;4955370;28;20071;-67
2024/01/23 00:50:00;;;;;;;42.42;9.13;;;9.60;99.90;;;9.78;79.05;101600.00;4955366;29;20055;-67
2024/01/23 00:52:28;;;;;;;33.90;8.02;;;9.60;99.90;;;9.82;78.96;101606.19;4955899;29;20046;-69
2024/01/23 00:55:02;;;;;;;38.53;9.00;;;9.60;99.90;;;9.82;79.00;101596.50;4955811;29;20366;-69
2024/01/23 00:57:30;;;;;;;51.22;9.23;;;9.70;99.90;;;9.76;80.10;101588.50;4955824;29;20115;-69
2024/01/23 01:00:00;;;;;;;45.85;9.73;;;9.60;99.90;;;9.83;80.72;101587.69;4955441;29;20051;-68
2024/01/23 01:02:30;;;;;;;43.88;8.77;;;9.60;99.90;;;9.82;81.04;101607.06;4955566;29;20059;-69
2024/01/23 01:04:59;;;;;;;33.57;9.50;;;9.70;99.90;;;9.87;80.85;101621.22;4955237;29;20106;-68
2024/01/23 01:07:27;;;;;;;40.60;11.10;;;9.70;99.90;;;9.83;81.33;101606.19;4955494;29;20298;-70
2024/01/23 01:09:56;;;;;;;46.47;9.82;;;9.70;99.90;;;9.80;81.68;101619.38;4955261;29;20075;-69
2024/01/23 01:12:24;;;;;;;43.55;9.27;;;9.60;99.90;;;9.86;81.61;101623.84;4955274;29;20071;-69
2024/01/23 01:14:52;;;;;;;36.55;9.50;;;9.70;99.90;;;9.69;82.05;101623.66;4954240;28;20442;-68
2024/01/23 01:17:21;;;;;;;43.63;9.60;;;9.60;99.90;;;9.74;82.23;101629.88;4970007;28;20054;-69
2024/01/23 01:19:51;;;;;;;40.40;9.05;;;9.60;99.90;;;9.81;82.48;101633.50;4955593;29;20082;-68
2024/01/23 01:22:19;;;;;;;40.72;9.57;;;9.60;99.90;;;9.78;83.12;101636.97;4955125;28;20118;-69
2024/01/23 01:24:48;;;;;;;34.42;8.48;;;9.60;99.90;;;9.02;83.67;101497.91;4954819;29;20039;-69
2024/01/23 01:27:16;;;;;;;34.25;8.70;;;9.60;99.90;;;9.69;84.20;101650.09;4953740;28;20409;-69
2024/01/23 01:29:45;;;;;;;41.33;8.52;;;9.50;99.90;;;9.74;84.60;101645.72;4969485;28;20396;-69
2024/01/23 01:32:13;;;;;;;47.25;9.18;;;9.60;99.90;;;9.76;84.67;101654.56;4954668;29;20044;-69
2024/01/23 01:34:41;;;;;;;35.05;9.00;;;9.60;99.90;;;9.66;84.77;101655.31;4955145;29;20055;-68
2024/01/23 01:37:11;;;;;;;43.40;8.73;;;9.50;99.90;;;9.70;84.82;101650.94;4954963;29;20057;-68
2024/01/23 01:39:40;;;;;;;50.23;9.73;;;9.50;99.90;;;9.69;84.61;101672.97;4954889;28;20105;-68
2024/01/23 01:42:08;;;;;;;38.88;10.10;;;9.50;99.90;;;9.71;84.99;101674.78;4954828;28;20485;-69
2024/01/23 01:44:36;;;;;;;41.00;8.82;;;9.50;99.90;;;9.74;84.64;101680.06;4954706;29;20453;-69
2024/01/23 01:47:04;;;;;;;45.78;9.68;;;9.60;99.90;;;9.77;84.80;101685.41;4954610;29;20129;-69
2024/01/23 01:49:33;;;;;;;38.58;9.27;;;9.60;99.90;;;9.80;84.10;101692.47;4954400;28;20117;-69
2024/01/23 01:52:03;;;;;;;38.67;9.80;;;9.60;99.90;;;9.82;83.95;101696.91;4954340;28;20047;-67
2024/01/23 01:54:33;;;;;;;40.57;8.40;;;9.60;99.90;;;9.67;84.21;101690.56;4954988;29;20056;-69
2024/01/23 01:57:01;;;;;;;32.60;8.27;;;9.50;99.90;;;9.77;83.65;101710.94;4956092;29;20134;-70
2024/01/23 01:59:35;;;;;;;38.10;8.52;;;9.60;99.90;;;9.76;83.61;101712.69;4956371;29;20047;-69
2024/01/23 02:02:05;;;;;;;38.67;9.50;;;9.60;99.90;;;9.78;83.08;101708.31;4956023;29;20071;-69
2024/01/23 02:04:33;;;;;;;;;;;9.60;99.90;;;9.76;82.97;101717.97;4956405;28;20505;-68
2024/01/23 02:07:02;;;;;;;37.10;8.45;;;9.60;99.90;;;9.75;83.25;101716.22;4956054;29;19929;-69
2024/01/23 02:09:32;;;;;;;34.92;8.82;;;9.60;99.90;;;9.71;82.85;101714.41;4956007;29;20035;-69
2024/01/23 02:12:04;;;;;;;37.30;9.00;;;9.60;99.90;;;9.66;83.12;101724.00;4956064;29;20047;-69
2024/01/23 02:14:32;;;;;;;42.35;8.77;;;9.50;99.90;;;9.68;83.05;101737.22;4955770;29;20047;-69
2024/01/23 02:17:01;;;;;;;56.83;9.23;;;9.50;99.90;;;9.61;82.80;101743.28;4955687;29;20548;-69
2024/01/23 02:19:29;;;;;;;36.22;8.77;;;9.50;99.90;;;9.55;83.11;101752.03;4955686;29;20071;-69
2024/01/23 02:21:58;;;;;;;39.80;9.30;;;9.40;99.90;;;9.55;82.86;101749.38;4954518;29;20047;-69
2024/01/23 02:24:27;;;;;;;35.67;9.30;;;9.40;99.90;;;9.53;82.82;101756.41;4970417;28;20079;-69
2024/01/23 02:26:56;;;;;;;39.00;8.45;;;9.40;99.90;;;9.51;82.26;101744.03;4954723;28;20099;-69
2024/01/23 02:29:24;;;;;;;36.72;8.93;;;9.40;99.90;;;9.50;81.86;101755.47;4954788;29;20436;-70
2024/01/23 02:31:52;;;;;;;37.25;8.50;;;9.30;99.90;;;9.45;81.74;101760.69;4955114;29;20093;-69
2024/01/23 02:34:21;;;;;;;37.63;8.95;;;9.30;99.90;;;9.51;81.64;101773.97;4954687;29;20047;-69
2024/01/23 02:36:50;;;;;;;32.08;8.80;;;9.30;99.90;;;9.44;81.08;101764.19;4954702;29;20043;-69
2024/01/23 02:39:19;;;;;;;30.88;8.00;;;9.30;99.90;;;9.41;81.20;101760.59;4954967;29;20525;-68
2024/01/23 02:41:49;;;;;;;37.88;8.90;;;9.30;99.90;;;9.44;80.73;101771.22;4954971;29;20126;-69
2024/01/23 02:44:17;;;;;;;38.53;8.37;;;9.30;99.90;;;9.50;80.42;101771.31;4954581;29;20071;-68
2024/01/23 02:46:46;;;;;;;27.85;7.90;;;9.30;99.90;;;9.48;80.46;101786.25;5444562;23;20824;-68
2024/01/23 02:49:14;;;;;;;36.40;8.85;;;9.30;99.90;;;9.39;80.57;101781.72;4955280;29;20446;-68
2024/01/23 02:51:43;;;;;;;42.67;9.88;;;9.30;99.90;;;9.41;80.59;101795.81;4954176;29;20062;-68
2024/01/23 02:54:12;;;;;;;31.48;8.52;;;9.30;99.90;;;9.47;80.27;101809.13;4969893;28;20062;-68
2024/01/23 02:56:40;;;;;;;38.28;8.73;;;9.30;99.90;;;9.45;80.30;101808.22;4954997;29;20090;-68
2024/01/23 02:59:10;;;;;;;38.78;8.55;;;9.30;99.90;;;9.43;79.71;101799.38;4955168;28;20051;-68
2024/01/23 03:01:39;;;;;;;43.42;9.57;;;9.30;99.90;;;9.36;80.02;101826.56;4955234;29;20397;-68
2024/01/23 03:04:07;;;;;;;42.85;9.88;;;9.20;99.90;;;9.45;80.22;101826.69;4955062;28;20390;-68
2024/01/23 03:06:36;;;;;;;38.08;8.65;;;9.30;99.90;;;9.41;80.17;101819.59;4955004;29;20043;-68
2024/01/23 03:09:06;;;;;;;36.15;8.75;;;9.30;99.90;;;9.44;80.24;101830.22;4954984;29;20464;-68
2024/01/23 03:11:34;;;;;;;39.65;8.48;;;9.30;99.90;;;9.42;80.42;101837.22;4954780;28;20043;-68
2024/01/23 03:14:03;;;;;;;37.33;8.95;;;9.30;99.90;;;9.47;80.54;101846.09;4954753;29;20054;-68
2024/01/23 03:16:34;;;;;;;37.03;8.68;;;9.30;99.90;;;9.45;80.29;101858.38;4955017;28;20052;-68
2024/01/23 03:19:03;;;;;;;38.85;9.30;;;9.30;99.90;;;9.36;80.55;101860.00;4954786;28;20546;-69
2024/01/23 03:21:31;;;;;;;37.67;9.10;;;9.20;99.90;;;9.44;80.64;101872.47;4954975;28;20044;-68
2024/01/23 03:24:00;;;;;;;37.53;8.63;;;9.30;99.90;;;9.38;80.42;101860.91;4954706;28;20047;-68
2024/01/23 03:26:28;;;;;;;35.03;8.18;;;9.30;99.90;;;9.45;80.27;101861.03;4954910;28;20042;-68
2024/01/23 03:28:57;;;;;;;44.33;8.55;;;9.30;99.90;;;9.34;79.92;101851.16;4954513;29;20040;-68
2024/01/23 03:31:25;;;;;;;30.58;8.60;;;9.30;99.90;;;9.50;79.50;101875.22;4954575;29;20070;-68
2024/01/23 03:33:55;;;;;;;36.63;8.88;;;9.30;99.90;;;9.51;79.84;101879.63;4954748;29;20050;-68
2024/01/23 03:36:23;;;;;;;31.73;7.65;;;9.40;99.90;;;9.51;79.56;101887.53;4953507;29;20051;-68
2024/01/23 03:38:52;;;;;;;36.65;8.52;;;9.40;99.90;;;8.89;79.38;101787.94;4954218;28;20387;-68
2024/01/23 03:41:20;;;;;;;33.63;8.43;;;9.30;99.90;;;9.43;79.50;101894.44;4954779;29;20043;-68
2024/01/23 03:43:48;;;;;;;24.60;8.10;;;9.30;99.90;;;9.41;79.79;101906.72;4954405;28;20413;-68
2024/01/23 03:46:17;;;;;;;37.58;8.43;;;9.30;99.90;;;9.49;79.25;101898.94;4969477;28;20090;-68
2024/01/23 03:48:45;;;;;;;35.60;7.88;;;9.30;99.90;;;9.46;79.07;101907.72;4954961;29;20400;-68
2024/01/23 03:51:15;;;;;;;31.38;8.73;;;9.30;99.90;;;9.31;78.73;101885.44;4954318;29;20051;-68
2024/01/23 03:53:44;;;;;;;35.60;8.13;;;9.30;99.90;;;9.57;78.78;101921.06;4955133;28;20049;-68
2024/01/23 03:56:12;;;;;;;40.85;9.25;;;9.40;99.90;;;9.62;78.80;101935.28;4954775;29;20047;-68
2024/01/23 03:58:42;;;;;;;30.73;8.63;;;9.40;99.90;;;9.50;79.15;101935.06;4969041;28;20066;-68
2024/01/23 04:01:10;;;;;;;40.55;8.82;;;9.40;99.90;;;9.11;79.37;101874.53;4954326;28;20085;-68
2024/01/23 04:03:39;;;;;;;35.85;8.57;;;9.40;99.90;;;9.53;78.92;101940.38;4954530;29;20046;-68
2024/01/23 04:06:08;;;;;;;39.03;8.40;;;9.40;99.90;;;9.52;79.54;101946.53;4954201;29;20073;-68
2024/01/23 04:08:37;;;;;;;27.02;7.90;;;9.30;99.90;;;9.42;79.56;101942.84;4954091;29;20047;-69
2024/01/23 04:11:06;;;;;;;39.87;8.87;;;9.30;99.90;;;9.45;79.89;101961.38;4954490;29;20548;-69
2024/01/23 04:13:34;;;;;;;36.55;8.00;;;9.30;99.90;;;9.49;80.00;101960.56;4954235;28;20291;-69
2024/01/23 04:16:03;;;;;;;37.65;8.45;;;9.30;99.90;;;9.38;80.11;101990.28;4954325;29;20070;-68
2024/01/23 04:18:31;;;;;;;31.83;8.18;;;9.20;99.90;;;9.39;80.24;101977.09;4954404;28;20063;-68
2024/01/23 04:21:00;;;;;;;33.47;7.65;;;9.20;99.90;;;9.33;80.73;101974.34;4969129;28;20055;-68
2024/01/23 04:23:29;;;;;;;41.67;8.80;;;9.20;99.90;;;9.22;81.35;101985.56;4954115;28;20484;-68
2024/01/23 04:25:59;;;;;;;32.80;8.10;;;9.10;99.90;;;9.26;81.14;101998.88;4954061;29;20560;-68
2024/01/23 04:28:27;;;;;;;32.72;8.23;;;9.10;99.90;;;9.24;81.27;102020.81;4953085;29;20051;-68
2024/01/23 04:30:55;;;;;;;35.08;9.00;;;9.10;99.90;;;9.37;80.79;102009.66;4954208;29;20454;-68
2024/01/23 04:33:25;;;;;;;38.90;8.55;;;9.20;99.90;;;9.27;81.75;102011.19;4953273;29;20085;-68
2024/01/23 04:35:53;;;;;;;29.40;8.43;;;9.10;99.90;;;9.37;81.74;102005.22;4953961;29;20043;-68
2024/01/23 04:38:22;;;;;;;37.50;8.30;;;9.20;99.90;;;9.41;82.05;102019.38;4952912;29;20138;-68
2024/01/23 04:40:50;;;;;;;41.72;8.82;;;9.20;99.90;;;9.41;82.31;102022.00;4952813;29;20047;-68
2024/01/23 04:43:21;;;;;;;40.92;9.50;;;9.20;99.90;;;9.39;82.28;102022.00;4954154;29;20048;-68
2024/01/23 04:45:49;;;;;;;35.25;9.27;;;9.20;99.90;;;9.33;82.30;102013.09;4954291;28;20090;-68
2024/01/23 04:48:18;;;;;;;35.47;8.07;;;9.20;99.90;;;9.34;82.58;102028.94;4954352;29;20110;-68
2024/01/23 04:50:46;;;;;;;40.47;9.30;;;9.20;99.90;;;9.39;82.32;102039.59;4955739;28;20043;-68
2024/01/23 04:53:15;;;;;;;48.20;9.20;;;9.20;99.90;;;9.42;82.39;102048.47;4957795;29;20440;-68
2024/01/23 04:55:43;;;;;;;39.40;8.85;;;9.30;99.90;;;9.35;82.19;102041.28;4972234;28;20063;-68
2024/01/23 04:58:12;;;;;;;38.03;10.18;;;9.20;99.90;;;9.31;82.72;102049.13;4957114;29;20039;-68
2024/01/23 05:00:42;;;;;;;39.42;8.60;;;9.20;99.90;;;9.38;82.45;102053.66;4957339;29;20047;-69
2024/01/23 05:03:15;;;;;;;37.58;8.25;;;9.20;99.90;;;9.29;82.42;102041.16;4957359;29;20143;-68
2024/01/23 05:05:44;;;;;;;34.38;8.13;;;9.10;99.90;;;9.29;82.34;102049.06;4955996;28;20047;-68
2024/01/23 05:08:15;;;;;;;36.60;8.20;;;9.10;99.90;;;8.96;82.19;102029.94;4956969;29;20121;-69
2024/01/23 05:10:44;;;;;;;40.28;9.73;;;9.10;99.90;;;9.17;82.20;102047.97;4956834;29;20040;-69
2024/01/23 05:13:13;;;;;;;42.05;9.40;;;9.00;99.90;;;9.10;82.67;102041.66;4956801;28;20556;-68
2024/01/23 05:15:43;;;;;;;36.53;8.50;;;8.90;99.90;;;9.08;82.76;102053.94;4955799;29;20102;-68
2024/01/23 05:18:11;;;;;;;35.75;9.32;;;9.00;99.90;;;9.13;82.83;102051.38;4956981;28;20130;-68
2024/01/23 05:20:40;;;;;;;42.97;10.65;;;9.00;99.90;;;9.09;83.27;102055.72;4956952;29;20047;-68
2024/01/23 05:23:08;;;;;;;35.47;8.23;;;8.90;99.90;;;9.04;83.11;102052.97;4956964;29;20393;-68
2024/01/23 05:25:38;;;;;;;33.42;7.85;;;8.90;99.90;;;9.01;83.50;102065.22;4956866;29;20059;-68
2024/01/23 05:28:06;;;;;;;35.92;9.52;;;8.90;99.90;;;9.00;83.65;102072.25;4956700;29;20098;-68
2024/01/23 05:30:35;;;;;;;38.53;9.95;;;8.90;99.90;;;8.77;83.95;102056.78;4956579;29;20163;-68
2024/01/23 05:33:05;;;;;;;35.33;8.40;;;8.80;99.90;;;9.10;83.70;102110.28;4956492;28;20047;-68
2024/01/23 05:35:35;;;;;;;30.35;7.88;;;8.90;99.90;;;8.94;83.74;102105.53;4956593;28;20047;-68
2024/01/23 05:38:04;;;;;;;39.85;9.45;;;8.80;99.90;;;8.93;84.06;102106.38;4956439;29;20047;-68
2024/01/23 05:40:32;;;;;;;37.47;8.95;;;8.80;99.90;;;8.83;84.64;102099.13;4956676;29;20110;-68
2024/01/23 05:43:02;;;;;;;37.42;8.02;;;8.80;99.90;;;8.90;84.44;102094.00;4956585;28;20520;-68
2024/01/23 05:45:30;;;;;;;40.40;9.27;;;8.80;99.90;;;8.10;84.17;101941.88;4956276;28;20043;-69
2024/01/23 05:47:59;;;;;;;42.90;9.75;;;8.90;99.90;;;8.78;84.43;102055.94;4956261;28;20055;-69
2024/01/23 05:50:29;;;;;;;38.40;9.48;;;8.80;99.90;;;8.89;84.72;102101.91;4956401;28;20047;-68
2024/01/23 05:52:57;;;;;;;34.65;8.90;;;8.80;99.90;;;9.03;84.59;102118.94;4956423;29;20086;-68
2024/01/23 05:55:25;;;;;;;49.25;10.45;;;8.80;99.90;;;8.89;84.88;102115.97;4956078;29;20544;-68
2024/01/23 05:57:54;;;;;;;47.35;9.88;;;8.80;99.90;;;8.97;84.58;102126.72;4956512;29;20054;-69
2024/01/23 06:00:22;;;;;;;37.05;8.60;;;8.80;99.90;;;8.91;84.39;102129.19;4955749;28;20047;-68
2024/01/23 06:02:51;;;;;;;38.35;9.23;;;8.80;99.90;;;8.96;84.10;102136.38;4955808;29;20120;-69
2024/01/23 06:05:20;;;;;;;39.00;8.65;;;8.80;99.90;;;8.97;84.52;102134.63;4955915;29;20043;-69
2024/01/23 06:07:50;;;;;;;38.10;8.98;;;8.80;99.90;;;9.00;84.11;102148.78;4956179;28;20046;-69
2024/01/23 06:10:19;;;;;;;33.50;9.20;;;8.80;99.90;;;8.90;84.58;102135.34;4956022;29;20058;-69
2024/01/23 06:12:48;;;;;;;33.95;8.85;;;8.80;99.90;;;8.99;84.71;102154.03;4956086;28;20489;-69
2024/01/23 06:15:16;;;;;;;42.90;9.82;;;8.80;99.90;;;9.09;84.20;102153.38;4955672;29;20051;-69
2024/01/23 06:17:45;;;;;;;42.00;9.00;;;8.90;99.90;;;8.99;84.36;102167.22;4955665;28;20047;-69
2024/01/23 06:20:14;;;;;;;34.83;8.93;;;8.90;99.90;;;9.01;84.63;102174.31;4955643;28;20047;-68
2024/01/23 06:22:42;;;;;;;40.42;9.52;;;8.90;99.90;;;9.07;84.43;102163.00;4955774;29;20125;-69
2024/01/23 06:25:15;;;;;;;41.10;9.70;;;8.90;99.90;;;9.02;84.13;102162.00;4956056;29;20050;-68
2024/01/23 06:27:43;;;;;;;34.22;7.72;;;8.90;99.90;;;8.92;85.17;102160.03;4955793;29;20039;-69
2024/01/23 06:30:13;;;;;;;42.58;9.15;;;8.80;99.90;;;8.25;84.99;102073.16;4955400;28;20083;-69
2024/01/23 06:32:43;;;;;;;44.00;9.32;;;8.70;99.90;;;9.06;84.54;102182.31;4955486;29;20043;-69
2024/01/23 06:35:12;;;;;;;48.95;10.77;;;8.90;99.90;;;9.13;84.19;102181.63;4955299;29;20058;-69
2024/01/23 06:37:40;;;;;;;42.15;9.13;;;9.00;99.90;;;9.07;83.99;102184.13;4955257;29;20067;-69
2024/01/23 06:40:12;;;;;;;32.03;8.40;;;8.90;99.90;;;9.17;83.80;102183.47;4955524;29;20043;-69
2024/01/23 06:42:40;;;;;;;41.75;10.48;;;9.00;99.90;;;9.06;84.18;102184.97;4955313;29;20102;-69
2024/01/23 06:45:10;;;;;;;34.92;9.43;;;8.90;99.90;;;9.17;84.06;102179.94;4955148;29;20106;-69
2024/01/23 06:47:38;;;;;;;36.83;9.35;;;9.00;99.90;;;9.12;84.17;102184.25;4954958;28;20066;-69
2024/01/23 06:50:08;;;;;;;50.08;10.80;;;8.90;99.90;;;9.14;84.20;102185.16;4955270;29;20055;-69
2024/01/23 06:52:36;;;;;;;44.42;9.80;;;9.00;99.90;;;9.18;84.47;102193.16;4955754;29;20039;-69
2024/01/23 06:55:06;;;;;;;45.10;10.25;;;9.00;99.90;;;9.04;84.78;102200.78;4954910;29;20043;-69
2024/01/23 06:57:36;;;;;;;45.50;9.38;;;8.90;99.90;;;9.21;84.64;102195.00;4954886;29;20130;-69
2024/01/23 07:00:08;;;;;;;41.30;9.57;;;9.00;99.90;;;9.11;84.10;102193.91;4955250;28;20054;-68
2024/01/23 07:02:37;;;;;;;38.75;9.82;;;9.00;99.90;;;9.00;84.72;102193.63;4955430;29;20058;-68
2024/01/23 07:05:07;;;;;;;48.63;10.02;;;8.90;99.90;;;8.98;84.76;102186.56;4954782;28;20039;-69
2024/01/23 07:07:35;;;;;;;42.83;10.30;;;8.80;99.90;;;9.04;85.04;102200.78;4955039;29;20051;-68
2024/01/23 07:10:05;;;;;;;37.50;9.57;;;8.90;99.90;;;9.14;84.71;102199.22;4954881;29;20453;-68
2024/01/23 07:12:35;;;;;;;48.33;9.63;;;9.00;99.90;;;9.19;85.08;102200.25;4953973;28;20180;-69
2024/01/23 07:15:05;;;;;;;42.75;10.20;;;9.00;99.90;;;9.29;84.18;102203.97;4955091;28;20043;-69
2024/01/23 07:17:33;;;;;;;49.20;10.50;;;9.10;99.90;;;9.29;83.65;102190.78;4969885;28;20074;-69
2024/01/23 07:20:02;;;;;;;43.30;9.77;;;9.10;99.90;;;9.29;83.63;102189.00;4953703;29;20068;-68
2024/01/23 07:22:31;;;;;;;41.25;10.10;;;9.10;99.90;;;9.40;83.39;102206.00;4954591;29;20120;-68
2024/01/23 07:25:03;;;;;;;38.90;9.95;;;9.20;99.90;;;9.46;83.33;102197.31;4954627;29;20106;-68
2024/01/23 07:27:32;;;;;;;38.72;9.18;;;9.20;99.90;;;9.47;83.06;102194.69;4954885;29;20400;-68
2024/01/23 07:30:02;;;;;;;43.35;9.38;;;9.30;99.90;;;9.51;82.65;102215.03;4954549;28;20047;-68
2024/01/23 07:32:31;;;;;;;38.83;9.32;;;9.30;99.90;;;9.29;82.37;102175.81;4954816;28;20043;-69
2024/01/23 07:34:59;;;;;;;43.35;9.95;;;9.30;99.90;;;9.19;82.27;102160.66;4954705;28;20043;-68
2024/01/23 07:37:28;;;;;;;44.95;8.52;;;9.30;99.90;;;9.43;82.13;102211.31;4954356;29;20043;-71
2024/01/23 07:39:58;;;;;;;40.58;9.07;;;9.30;99.90;;;9.45;81.72;102225.47;4954462;28;20043;-71
2024/01/23 07:42:26;;;;;;;33.90;8.30;;;9.30;99.90;;;9.43;82.05;102229.81;4954664;29;20039;-74
2024/01/23 07:44:55;;;;;;;43.85;9.13;;;9.20;99.90;;;9.45;81.21;102228.09;4953200;29;20147;-77
2024/01/23 07:47:25;;;;;;;35.42;9.57;;;9.30;99.90;;;9.51;80.98;102243.19;4969225;28;20106;-80
2024/01/23 07:49:54;;;;;;;;;;;9.30;99.90;;;9.41;81.00;102244.72;4969438;28;20044;-75
2024/01/23 07:52:26;;;;;;;44.83;10.40;;;9.20;99.90;;;9.38;81.28;102246.41;4954556;29;19926;-72
2024/01/23 07:54:55;;;;;;;37.25;9.93;;;9.20;99.90;;;9.44;81.13;102255.38;4954179;29;20489;-77
2024/01/23 07:57:24;;;;;;;38.30;9.77;;;9.20;99.90;;;9.49;80.95;102266.03;4954532;29;20051;-74
2024/01/23 07:59:53;;;;;;;42.42;9.48;;;9.20;99.90;;;9.45;80.18;102275.63;4953166;28;20051;-74
2024/01/23 08:02:21;;;;;;;39.00;9.57;;;9.20;99.90;;;9.49;80.17;102288.06;4952296;29;20516;-71
2024/01/23 08:04:51;;;;;;;31.63;9.25;;;9.20;99.90;;;9.53;80.22;102287.28;4952772;29;20058;-72
2024/01/23 08:07:19;;;;;;;40.83;9.98;;;9.20;99.90;;;9.54;79.91;102296.97;4952285;29;20047;-72
2024/01/23 08:09:48;;;;;;;41.35;8.57;;;9.20;99.90;;;9.60;80.47;102302.38;4951115;28;20047;-70
2024/01/23 08:12:16;;;;;;;35.60;8.65;;;9.30;99.90;;;8.97;80.49;102204.13;4952430;28;20091;-69
2024/01/23 08:14:46;;;;;;;39.30;9.48;;;9.30;99.90;;;9.69;80.98;102305.25;4952196;29;20047;-68
2024/01/23 08:17:15;;;;;;;43.10;9.03;;;9.40;99.90;;;9.87;80.62;102318.84;4951089;29;20055;-71
2024/01/23 08:19:43;;;;;;;40.97;9.43;;;9.50;99.90;;;9.96;81.07;102327.00;4967042;28;20329;-73
2024/01/23 08:22:13;;;;;;;43.10;9.52;;;9.70;99.90;;;10.02;80.67;102327.13;4952200;28;20044;-74
2024/01/23 08:24:42;;;;;;;44.13;10.25;;;9.70;99.90;;;10.04;81.14;102333.31;4953873;28;20501;-73
2024/01/23 08:27:10;;;;;;;47.10;10.07;;;9.80;99.90;;;10.19;81.11;102355.69;4955844;29;20047;-71
2024/01/23 08:29:38;;;;;;;37.10;10.13;;;9.90;99.90;;;10.33;80.52;102343.66;4955937;29;20058;-68
2024/01/23 08:32:08;;;;;;;44.55;11.18;;;10.00;99.90;;;10.32;79.96;102349.78;4955624;29;20118;-72
2024/01/23 08:34:38;;;;;;;49.78;11.02;;;10.10;99.90;;;10.50;80.26;102347.53;4955757;29;20047;-70
2024/01/23 08:37:07;;;;;;;51.70;10.35;;;10.20;99.90;;;10.52;80.03;102359.03;4970422;28;20059;-71
2024/01/23 08:39:37;;;;;;;44.28;10.10;;;10.20;99.90;;;9.93;80.03;102236.16;4955619;29;20053;-73
2024/01/23 08:42:06;;;;;;;48.70;10.98;;;10.30;99.90;;;10.62;79.81;102359.25;4955784;29;20137;-72
2024/01/23 08:44:35;;;;;;;43.95;11.45;;;10.40;99.90;;;10.71;79.64;102348.81;4955855;28;20039;-70
2024/01/23 08:47:04;;;;;;;44.27;10.73;;;10.40;99.90;;;10.72;79.38;102313.53;4955933;29;20143;-72
2024/01/23 08:49:33;;;;;;;41.42;10.48;;;10.60;99.90;;;11.11;78.68;102344.25;4955757;29;20286;-70
2024/01/23 08:52:01;;;;;;;41.97;9.85;;;10.80;99.90;;;11.27;77.87;102344.50;4955623;29;20047;-75
2024/01/23 08:54:30;;;;;;;50.75;10.45;;;11.00;99.90;;;11.45;77.15;102350.13;4955897;29;20132;-72
2024/01/23 08:57:00;;;;;;;42.45;10.02;;;11.20;99.90;;;11.52;76.39;102346.69;4955216;29;20416;-73
2024/01/23 08:59:28;;;;;;;41.20;10.40;;;11.20;99.90;;;11.65;75.73;102355.72;4955808;28;20047;-73
2024/01/23 09:01:57;;;;;;;38.58;9.45;;;11.30;99.90;;;11.90;75.41;102344.66;4955477;29;20373;-73
2024/01/23 09:04:25;;;;;;;38.15;9.50;;;11.60;99.90;;;12.06;74.52;102348.41;4954407;28;20110;-73
2024/01/23 09:06:54;;;;;;;46.85;10.32;;;11.70;99.90;;;12.16;74.08;102344.97;4955124;29;20051;-73
2024/01/23 09:09:23;;;;;;;38.65;9.82;;;11.80;99.90;;;12.23;73.44;102357.47;4955010;29;20118;-73
2024/01/23 09:11:52;;;;;;;38.40;8.90;;;11.90;99.90;;;12.28;73.43;102343.38;4955148;29;20392;-73
2024/01/23 09:14:22;;;;;;;43.97;10.20;;;12.00;99.90;;;12.40;72.84;102362.09;4953888;29;20048;-69
2024/01/23 09:16:50;;;;;;;41.27;9.67;;;12.10;99.90;;;12.37;72.49;102353.19;4953915;29;20051;-71
2024/01/23 09:19:19;;;;;;;37.08;9.15;;;12.20;99.90;;;12.55;72.34;102349.00;4954851;28;20134;-72
2024/01/23 09:21:47;;;;;;;37.17;9.18;;;12.20;99.90;;;12.66;72.30;102341.13;4953814;29;20079;-72
2024/01/23 09:24:17;;;;;;;40.45;9.02;;;12.30;99.90;;;12.75;71.51;102335.94;4954799;29;20051;-72
2024/01/23 09:26:46;;;;;;;35.88;9.43;;;12.50;99.90;;;12.84;71.58;102340.44;4954709;28;20039;-64
2024/01/23 09:29:14;;;;;;;35.58;8.75;;;12.50;99.90;;;12.96;71.52;102329.94;4955193;28;20460;-64
2024/01/23 09:31:48;;;;;;;43.58;9.10;;;12.70;99.90;;;13.06;71.00;102345.13;4969669;28;20054;-64
2024/01/23 09:34:16;;;;;;;41.00;9.52;;;12.70;99.90;;;13.20;70.52;102339.03;4954539;28;20047;-64
2024/01/23 09:36:45;;;;;;;34.20;9.10;;;12.80;99.90;;;13.20;70.26;102340.84;4954022;28;20401;-64
2024/01/23 09:39:15;;;;;;;37.78;9.90;;;12.90;99.90;;;13.04;70.27;102317.66;4954837;28;20045;-64
2024/01/23 09:41:47;;;;;;;32.95;8.98;;;12.90;99.90;;;13.21;70.01;102332.88;4953385;28;20105;-63
2024/01/23 09:44:16;;;;;;;43.42;9.35;;;12.90;99.90;;;13.14;70.28;102331.03;4954862;28;20499;-63
2024/01/23 09:46:47;;;;;;;39.88;9.00;;;12.90;99.90;;;13.27;70.03;102343.56;4954356;29;20039;-63
2024/01/23 09:49:17;;;;;;;;;;;12.90;99.90;;;13.27;70.13;102335.59;4953414;28;20058;-63
2024/01/23 09:51:47;;;;;;;39.35;9.32;;;13.00;99.90;;;13.39;69.48;102351.59;4954191;29;19934;-63
2024/01/23 09:54:17;;;;;;;35.92;9.60;;;13.10;99.90;;;13.32;69.74;102351.53;4954158;29;20039;-63
2024/01/23 09:56:46;;;;;;;37.42;8.80;;;13.00;99.90;;;13.39;69.41;102364.03;4953979;29;20047;-62
2024/01/23 09:59:14;;;;;;;38.13;8.70;;;13.10;99.90;;;13.39;69.27;102353.41;4954702;28;20055;-62
2024/01/23 10:01:43;;;;;;;35.03;8.85;;;13.10;99.90;;;13.00;69.26;102284.84;4954328;28;20035;-62
2024/01/23 10:04:17;;;;;;;41.28;9.05;;;13.10;99.90;;;13.20;69.21;102311.59;4954391;28;20051;-62
2024/01/23 10:06:46;;;;;;;34.97;9.27;;;13.20;99.90;;;13.47;69.05;102363.19;4954511;29;20051;-64
2024/01/23 10:09:14;;;;;;;37.45;8.88;;;13.20;99.90;;;13.39;69.12;102333.00;4953976;29;20047;-62
2024/01/23 10:11:43;;;;;;;40.78;9.98;;;13.20;99.90;;;13.73;68.33;102381.09;4953633;28;20074;-62
2024/01/23 10:14:14;;;;;;;34.17;8.88;;;13.40;99.90;;;13.66;68.38;102369.56;4953569;29;20110;-63
2024/01/23 10:16:42;;;;;;;37.20;9.40;;;13.40;99.90;;;13.49;68.43;102349.94;4953768;29;20054;-63
2024/01/23 10:19:12;;;;;;;32.35;8.82;;;13.20;99.90;;;13.52;68.46;102357.91;4953794;29;20047;-63
2024/01/23 10:21:41;;;;;;;35.90;9.10;;;13.20;99.90;;;13.32;68.69;102352.44;4953741;28;20046;-63